createdAt,value
2019-02-15T00:00:19.035Z,6.5
2019-02-15T00:02:18.664Z,7
2019-02-15T00:04:19.323Z,6.5
2019-02-15T00:06:18.643Z,5.2
2019-02-15T00:08:19.304Z,5.6
2019-02-15T00:10:19.403Z,4.9
2019-02-15T00:12:19.083Z,6.2
2019-02-15T00:14:18.754Z,5.2
2019-02-15T00:16:19.161Z,5.6
2019-02-15T00:18:18.892Z,5.5
2019-02-15T00:20:18.568Z,4.6
2019-02-15T00:22:19.223Z,5.7
2019-02-15T00:24:18.918Z,5
2019-02-15T00:26:19.247Z,4.4
2019-02-15T00:28:18.893Z,4.6
2019-02-15T00:30:18.558Z,4.7
2019-02-15T00:32:19.179Z,4.5
2019-02-15T00:34:18.850Z,5.4
2019-02-15T00:36:19.105Z,4.9
2019-02-15T00:38:18.752Z,3.7
2019-02-15T00:40:18.869Z,4.6
2019-02-15T00:42:18.510Z,4.9
2019-02-15T00:44:19.131Z,4
2019-02-15T00:46:18.925Z,4.5
2019-02-15T00:48:18.550Z,4.4
2019-02-15T00:50:19.180Z,4.6
2019-02-15T00:52:18.845Z,4.7
2019-02-15T00:54:18.494Z,4.5
2019-02-15T00:56:18.731Z,4.2
2019-02-15T00:58:19.335Z,4.6
2019-02-15T01:00:18.996Z,3.8
2019-02-15T01:02:18.653Z,4.1
2019-02-15T01:04:19.279Z,4.5
2019-02-15T01:06:19.120Z,3.8
2019-02-15T01:08:18.747Z,4.6
2019-02-15T01:10:18.897Z,3.4
2019-02-15T01:12:18.548Z,4.2
2019-02-15T01:14:19.170Z,3.8
2019-02-15T01:16:18.480Z,4.9
2019-02-15T01:18:19.219Z,3.7
2019-02-15T01:20:18.882Z,4.4
2019-02-15T01:22:18.505Z,4.9
2019-02-15T01:24:19.122Z,5.3
2019-02-15T01:26:19.390Z,4.6
2019-02-15T01:28:19.021Z,4.9
2019-02-15T01:30:18.696Z,4.3
2019-02-15T01:32:19.333Z,4.4
2019-02-15T01:34:18.948Z,4.9
2019-02-15T01:36:19.260Z,4.3
2019-02-15T01:38:18.867Z,3.6
2019-02-15T01:40:18.948Z,5
2019-02-15T01:42:18.575Z,4.4
2019-02-15T01:44:19.186Z,4.5
2019-02-15T01:46:18.469Z,5.1
2019-02-15T01:48:19.137Z,5.1
2019-02-15T01:50:18.790Z,4.4
2019-02-15T01:52:18.417Z,4.8
2019-02-15T01:54:19.059Z,4
2019-02-15T01:56:19.324Z,4
2019-02-15T01:58:18.953Z,4.3
2019-02-15T02:00:18.622Z,3.8
2019-02-15T02:02:18.507Z,4.5
2019-02-15T02:04:19.126Z,4.2
2019-02-15T02:06:19.352Z,4.2
2019-02-15T02:08:18.991Z,4.5
2019-02-15T02:10:19.067Z,4.7
2019-02-15T02:12:18.695Z,4.3
2019-02-15T02:14:19.333Z,4.9
2019-02-15T02:16:18.575Z,4.9
2019-02-15T02:18:19.301Z,4.4
2019-02-15T02:20:19.099Z,3.8
2019-02-15T02:22:18.733Z,4.5
2019-02-15T02:24:19.355Z,4.7
2019-02-15T02:26:19.135Z,5.2
2019-02-15T02:28:18.776Z,4.3
2019-02-15T02:30:18.446Z,4
2019-02-15T02:32:19.074Z,3.3
2019-02-15T02:34:18.724Z,4.1
2019-02-15T02:36:18.571Z,3.9
2019-02-15T02:38:19.211Z,5.1
2019-02-15T02:40:19.301Z,4.1
2019-02-15T02:42:18.943Z,3.8
2019-02-15T02:44:18.577Z,4.2
2019-02-15T02:46:19.366Z,3.6
2019-02-15T02:48:19.014Z,5.1
2019-02-15T02:50:18.686Z,3.2
2019-02-15T02:52:19.320Z,4.6
2019-02-15T02:54:18.943Z,5.1
2019-02-15T02:56:19.259Z,4
2019-02-15T02:58:18.901Z,4.7
2019-02-15T03:00:18.549Z,4.5
2019-02-15T03:02:19.191Z,3.4
2019-02-15T03:04:18.800Z,3.5
2019-02-15T03:06:18.680Z,3.8
2019-02-15T03:08:19.323Z,3.3
2019-02-15T03:10:19.393Z,3.9
2019-02-15T03:12:19.044Z,4.4
2019-02-15T03:14:18.675Z,3.9
2019-02-15T03:16:19.029Z,4.5
2019-02-15T03:18:18.749Z,4.6
2019-02-15T03:20:18.468Z,3.5
2019-02-15T03:22:19.097Z,4.4
2019-02-15T03:24:18.723Z,3.6
2019-02-15T03:26:18.547Z,3.5
2019-02-15T03:28:19.197Z,3.6
2019-02-15T03:30:18.908Z,4
2019-02-15T03:32:18.555Z,4.1
2019-02-15T03:34:19.207Z,3.6
2019-02-15T03:36:19.023Z,3.9
2019-02-15T03:38:18.647Z,3.8
2019-02-15T03:40:18.796Z,3.6
2019-02-15T03:42:18.440Z,3.7
2019-02-15T03:44:22.032Z,3.6
2019-02-15T03:46:19.236Z,3.3
2019-02-15T03:48:18.891Z,5
2019-02-15T03:50:18.564Z,4.2
2019-02-15T03:52:19.230Z,4.3
2019-02-15T03:54:18.862Z,3.1
2019-02-15T03:56:19.200Z,4.5
2019-02-15T03:58:18.819Z,3.9
2019-02-15T04:00:18.477Z,3.4
2019-02-15T04:02:19.110Z,3.5
2019-02-15T04:04:18.767Z,3.3
2019-02-15T04:06:19.046Z,3.8
2019-02-15T04:08:18.691Z,4.8
2019-02-15T04:10:18.791Z,4.7
2019-02-15T04:12:18.440Z,3.2
2019-02-15T04:14:19.054Z,3.7
2019-02-15T04:16:18.570Z,4.2
2019-02-15T04:18:19.281Z,4
2019-02-15T04:20:19.001Z,4.5
2019-02-15T04:22:18.875Z,3.5
2019-02-15T04:24:18.516Z,3.3
2019-02-15T04:26:19.022Z,4
2019-02-15T04:28:18.646Z,3.1
2019-02-15T04:30:19.311Z,3.9
2019-02-15T04:32:18.938Z,3.6
2019-02-15T04:34:18.589Z,4.5
2019-02-15T04:36:19.373Z,4.4
2019-02-15T04:38:19.039Z,3.5
2019-02-15T04:40:19.201Z,4.3
2019-02-15T04:42:18.849Z,3.8
2019-02-15T04:44:18.536Z,3.3
2019-02-15T04:46:18.845Z,3.5
2019-02-15T04:48:18.503Z,3.2
2019-02-15T04:50:19.156Z,3.9
2019-02-15T04:52:18.788Z,4.1
2019-02-15T04:54:19.421Z,3.7
2019-02-15T04:56:18.685Z,4.1
2019-02-15T04:58:19.308Z,3.8
2019-02-15T05:00:18.986Z,5.1
2019-02-15T05:02:18.606Z,4.9
2019-02-15T05:04:19.266Z,3.5
2019-02-15T05:06:19.286Z,3.5
2019-02-15T05:08:18.920Z,3.9
2019-02-15T05:10:18.997Z,3.7
2019-02-15T05:12:18.683Z,4.2
2019-02-15T05:14:19.305Z,3.3
2019-02-15T05:16:19.212Z,3.4
2019-02-15T05:18:18.943Z,3.5
2019-02-15T05:20:18.593Z,3.3
2019-02-15T05:22:19.234Z,3.7
2019-02-15T05:24:18.856Z,4.3
2019-02-15T05:26:19.084Z,4.1
2019-02-15T05:28:18.712Z,3.4
2019-02-15T05:30:19.331Z,3.9
2019-02-15T05:32:18.964Z,4.1
2019-02-15T05:34:18.586Z,3.8
2019-02-15T05:36:19.374Z,4.2
2019-02-15T05:38:19.032Z,3.4
2019-02-15T05:40:19.145Z,3.6
2019-02-15T05:42:18.790Z,2.9
2019-02-15T05:44:18.433Z,3.7
2019-02-15T05:46:19.302Z,4.1
2019-02-15T05:48:18.948Z,4.5
2019-02-15T05:50:18.683Z,3.4
2019-02-15T05:52:19.347Z,4.5
2019-02-15T05:54:18.957Z,3.7
2019-02-15T05:56:19.022Z,3.7
2019-02-15T05:58:18.667Z,4
2019-02-15T06:00:19.295Z,4.1
2019-02-15T06:02:18.964Z,3.9
2019-02-15T06:04:18.600Z,2.9
2019-02-15T06:06:18.879Z,4.3
2019-02-15T06:08:18.535Z,4.1
2019-02-15T06:10:18.794Z,4
2019-02-15T06:12:18.420Z,4.1
2019-02-15T06:14:19.066Z,4.9
2019-02-15T06:16:19.377Z,4.3
2019-02-15T06:18:19.061Z,4.6
2019-02-15T06:20:18.712Z,4.5
2019-02-15T06:22:19.354Z,4.3
2019-02-15T06:24:19.013Z,4.2
2019-02-15T06:26:19.382Z,3.4
2019-02-15T06:28:19.030Z,4.6
2019-02-15T06:30:18.708Z,4.3
2019-02-15T06:32:19.344Z,3.6
2019-02-15T06:34:18.955Z,4.8
2019-02-15T06:36:18.765Z,4.4
2019-02-15T06:38:19.410Z,3.9
2019-02-15T06:40:18.526Z,4.2
2019-02-15T06:42:19.139Z,4
2019-02-15T06:44:18.773Z,4.2
2019-02-15T06:46:19.013Z,4.2
2019-02-15T06:48:18.653Z,4.4
2019-02-15T06:50:19.320Z,4.4
2019-02-15T06:52:18.962Z,4
2019-02-15T06:54:18.609Z,5.6
2019-02-15T06:56:18.454Z,5.4
2019-02-15T06:58:19.077Z,4.1
2019-02-15T07:00:18.708Z,3.9
2019-02-15T07:02:19.313Z,4
2019-02-15T07:04:18.955Z,3.3
2019-02-15T07:06:18.744Z,3.8
2019-02-15T07:08:19.373Z,4.2
2019-02-15T07:10:18.695Z,4.5
2019-02-15T07:12:19.341Z,3.5
2019-02-15T07:14:20.833Z,4.2
2019-02-15T07:16:18.816Z,4.7
2019-02-15T07:18:18.495Z,4.1
2019-02-15T07:20:19.139Z,4.4
2019-02-15T07:22:18.801Z,4.2
2019-02-15T07:24:18.449Z,4.7
2019-02-15T07:26:18.773Z,4
2019-02-15T07:28:19.417Z,4.4
2019-02-15T07:30:19.083Z,3.6
2019-02-15T07:32:18.695Z,5.1
2019-02-15T07:34:19.327Z,3.7
2019-02-15T07:36:18.683Z,4.4
2019-02-15T07:38:19.335Z,4.1
2019-02-15T07:40:18.453Z,4.4
2019-02-15T07:42:20.994Z,4.5
2019-02-15T07:44:18.877Z,5.5
2019-02-15T07:46:18.776Z,4.5
2019-02-15T07:48:19.423Z,6.1
2019-02-15T07:50:19.187Z,6
2019-02-15T07:52:18.826Z,6.2
2019-02-15T07:54:18.442Z,7
2019-02-15T07:56:18.887Z,6
2019-02-15T07:58:18.536Z,5.1
2019-02-15T08:00:19.289Z,6.5
2019-02-15T08:02:18.916Z,6.1
2019-02-15T08:04:18.587Z,6.4
2019-02-15T08:06:18.831Z,5.7
2019-02-15T08:08:18.441Z,6.2
2019-02-15T08:10:18.547Z,6.5
2019-02-15T08:12:18.589Z,5.8
2019-02-15T08:14:19.234Z,6.1
2019-02-15T08:16:18.578Z,5.8
2019-02-15T08:18:19.263Z,6.2
2019-02-15T08:20:18.937Z,4.9
2019-02-15T08:22:18.566Z,6.5
2019-02-15T08:24:19.197Z,5.6
2019-02-15T08:26:19.065Z,5.2
2019-02-15T08:28:18.705Z,5.7
2019-02-15T08:30:19.359Z,5.1
2019-02-15T08:32:18.985Z,4.8
2019-02-15T08:34:18.612Z,5.6
2019-02-15T08:36:18.865Z,4.9
2019-02-15T08:38:18.497Z,5.5
2019-02-15T08:40:18.645Z,5.1
2019-02-15T08:42:19.302Z,6.8
2019-02-15T08:44:18.937Z,6
2019-02-15T08:46:18.786Z,6.7
2019-02-15T08:48:18.443Z,6.1
2019-02-15T08:50:19.071Z,5.9
2019-02-15T08:52:18.715Z,6.4
2019-02-15T08:54:19.389Z,6
2019-02-15T08:56:18.619Z,5.8
2019-02-15T08:58:19.260Z,5.6
2019-02-15T09:00:18.877Z,4.5
2019-02-15T09:02:18.545Z,5
2019-02-15T09:04:19.209Z,4.7
2019-02-15T09:06:18.476Z,4.3
2019-02-15T09:08:19.139Z,3.7
2019-02-15T09:10:19.239Z,4.2
2019-02-15T09:12:18.884Z,4.2
2019-02-15T09:14:18.573Z,3.7
2019-02-15T09:16:18.888Z,4.2
2019-02-15T09:18:18.614Z,2.8
2019-02-15T09:20:19.289Z,3.4
2019-02-15T09:22:18.914Z,3.5
2019-02-15T09:24:18.561Z,2.7
2019-02-15T09:26:19.368Z,3.3
2019-02-15T09:28:19.012Z,3.3
2019-02-15T09:30:18.659Z,3.7
2019-02-15T09:32:19.308Z,2.9
2019-02-15T09:34:18.970Z,4.1
2019-02-15T09:36:19.237Z,3.3
2019-02-15T09:38:18.894Z,3.3
2019-02-15T09:40:19.027Z,3.4
2019-02-15T09:42:18.706Z,4.6
2019-02-15T09:44:19.371Z,4.5
2019-02-15T09:46:20.131Z,2.9
2019-02-15T09:48:18.995Z,2.6
2019-02-15T09:50:18.646Z,4.3
2019-02-15T09:52:19.291Z,3.6
2019-02-15T09:54:18.957Z,4
2019-02-15T09:56:19.394Z,3.1
2019-02-15T09:58:19.056Z,3.5
2019-02-15T10:00:18.734Z,3.7
2019-02-15T10:02:19.393Z,3.9
2019-02-15T10:04:19.029Z,3.4
2019-02-15T10:06:18.474Z,2.9
2019-02-15T10:08:19.128Z,3.6
2019-02-15T10:10:19.314Z,3.7
2019-02-15T10:12:18.971Z,3.3
2019-02-15T10:14:18.626Z,3.2
2019-02-15T10:16:18.925Z,3.2
2019-02-15T10:18:18.634Z,3.3
2019-02-15T10:20:19.323Z,3
2019-02-15T10:22:18.982Z,2.5
2019-02-15T10:24:18.648Z,3.4
2019-02-15T10:26:18.499Z,3
2019-02-15T10:28:19.148Z,2.6
2019-02-15T10:30:18.852Z,3.4
2019-02-15T10:32:18.496Z,2.7
2019-02-15T10:34:19.141Z,3.3
2019-02-15T10:36:19.405Z,3
2019-02-15T10:38:19.060Z,3.2
2019-02-15T10:40:19.170Z,3.2
2019-02-15T10:42:18.830Z,3.2
2019-02-15T10:44:18.468Z,3.2
2019-02-15T10:46:19.249Z,2.9
2019-02-15T10:48:18.899Z,3.1
2019-02-15T10:50:18.566Z,2.9
2019-02-15T10:52:19.211Z,3.1
2019-02-15T10:54:18.854Z,2.9
2019-02-15T10:56:19.174Z,3.1
2019-02-15T10:58:18.835Z,2.7
2019-02-15T11:00:18.540Z,2.9
2019-02-15T11:02:19.227Z,2.7
2019-02-15T11:04:18.886Z,3.4
2019-02-15T11:06:18.678Z,3.1
2019-02-15T11:08:19.362Z,3
2019-02-15T11:10:18.569Z,2.8
2019-02-15T11:12:19.245Z,3.1
2019-02-15T11:14:18.917Z,2.4
2019-02-15T11:16:19.196Z,3.1
2019-02-15T11:18:18.941Z,2.7
2019-02-15T11:20:18.602Z,3.5
2019-02-15T11:22:19.278Z,2.7
2019-02-15T11:24:18.950Z,3.5
2019-02-15T11:26:24.669Z,3.3
2019-02-15T11:28:18.664Z,2.7
2019-02-15T11:30:19.311Z,2.8
2019-02-15T11:32:18.961Z,3.3
2019-02-15T11:34:18.603Z,3.6
2019-02-15T11:36:18.871Z,2.3
2019-02-15T11:38:18.508Z,3.1
2019-02-15T11:40:18.646Z,2.5
2019-02-15T11:42:19.313Z,3.8
2019-02-15T11:44:18.986Z,2.7
2019-02-15T11:46:18.815Z,3.2
2019-02-15T11:48:18.465Z,3.3
2019-02-15T11:50:19.142Z,2.7
2019-02-15T11:52:18.814Z,3
2019-02-15T11:54:23.467Z,2.8
2019-02-15T11:56:19.107Z,2.5
2019-02-15T11:58:18.764Z,2
2019-02-15T12:00:20.903Z,1.9
2019-02-15T12:02:18.804Z,2.4
2019-02-15T12:04:18.469Z,2.1
2019-02-15T12:06:18.754Z,2.3
2019-02-15T12:08:19.415Z,2.7
2019-02-15T12:10:18.599Z,2.3
2019-02-15T12:12:19.270Z,2.7
2019-02-15T12:14:18.908Z,1.9
2019-02-15T12:16:18.892Z,2.1
2019-02-15T12:18:18.635Z,1.5
2019-02-15T12:20:19.318Z,1.8
2019-02-15T12:22:19.012Z,2.3
2019-02-15T12:24:18.668Z,2.1
2019-02-15T12:26:18.981Z,2.3
2019-02-15T12:28:18.640Z,2.2
2019-02-15T12:30:19.317Z,1.9
2019-02-15T12:32:18.979Z,2.3
2019-02-15T12:34:18.675Z,2.5
2019-02-15T12:36:19.008Z,1.8
2019-02-15T12:38:18.704Z,1.5
2019-02-15T12:40:18.832Z,2.2
2019-02-15T12:42:18.526Z,2.1
2019-02-15T12:44:19.179Z,1.9
2019-02-15T12:46:18.493Z,2.3
2019-02-15T12:48:19.148Z,2
2019-02-15T12:50:18.847Z,1.8
2019-02-15T12:52:18.522Z,1.5
2019-02-15T12:54:19.164Z,1.9
2019-02-15T12:56:18.906Z,1.5
2019-02-15T12:58:18.596Z,1.8
2019-02-15T13:00:19.309Z,2.5
2019-02-15T13:02:18.455Z,1.8
2019-02-15T13:04:19.144Z,2.3
2019-02-15T13:06:28.157Z,1.8
2019-02-15T13:08:18.577Z,2
2019-02-15T13:10:18.747Z,2.7
2019-02-15T13:12:18.457Z,2.8
2019-02-15T13:14:19.108Z,2.4
2019-02-15T13:16:18.478Z,1.6
2019-02-15T13:18:19.240Z,1.5
2019-02-15T13:20:18.964Z,2.4
2019-02-15T13:22:20.123Z,2.2
2019-02-15T13:24:19.001Z,2.1
2019-02-15T13:26:19.422Z,1.7
2019-02-15T13:28:19.367Z,1.7
2019-02-15T13:30:19.104Z,2.2
2019-02-15T13:32:18.771Z,2.4
2019-02-15T13:34:19.453Z,2
2019-02-15T13:36:19.360Z,1.6
2019-02-15T13:38:19.067Z,1.5
2019-02-15T13:40:18.210Z,1.3
2019-02-15T13:42:17.914Z,1.3
2019-02-15T13:44:18.593Z,1.8
2019-02-15T13:46:18.928Z,1.4
2019-02-15T13:48:18.639Z,1.7
2019-02-15T13:50:19.421Z,1.3
2019-02-15T13:52:19.169Z,1.5
2019-02-15T13:54:18.834Z,1.5
2019-02-15T13:56:18.739Z,1.2
2019-02-15T13:58:18.437Z,1.5
2019-02-15T14:00:19.144Z,1.4
2019-02-15T14:02:18.848Z,1.3
2019-02-15T14:04:18.527Z,1.2
2019-02-15T14:06:18.567Z,1.3
2019-02-15T14:08:19.235Z,0.9
2019-02-15T14:10:19.361Z,1
2019-02-15T14:12:19.018Z,0.7
2019-02-15T14:14:17.744Z,2.1
2019-02-15T14:16:19.110Z,0.9
2019-02-15T14:18:18.860Z,1.1
2019-02-15T14:20:18.571Z,1.1
2019-02-15T14:22:19.317Z,1.4
2019-02-15T14:24:19.083Z,1
2019-02-15T14:26:18.561Z,1.1
2019-02-15T14:28:18.221Z,1.2
2019-02-15T14:30:18.915Z,0.8
2019-02-15T14:32:17.670Z,1
2019-02-15T14:34:19.335Z,1.1
2019-02-15T14:36:18.205Z,1
2019-02-15T14:38:17.863Z,1.6
2019-02-15T14:40:18.001Z,1
2019-02-15T14:42:18.696Z,0.9
2019-02-15T14:44:18.423Z,1.1
2019-02-15T14:46:18.287Z,1.3
2019-02-15T14:48:19.908Z,1.5
2019-02-15T14:50:18.869Z,1.1
2019-02-15T14:52:17.556Z,1.4
2019-02-15T14:54:18.247Z,1.3
2019-02-15T14:56:17.561Z,0.9
2019-02-15T14:58:18.227Z,0.9
2019-02-15T15:00:17.989Z,0.9
2019-02-15T15:02:17.659Z,1.1
2019-02-15T15:04:18.373Z,0.8
2019-02-15T15:06:18.355Z,1.2
2019-02-15T15:08:18.033Z,1.1
2019-02-15T15:10:19.235Z,0.9
2019-02-15T15:12:17.921Z,1.3
2019-02-15T15:14:17.585Z,1.3
2019-02-15T15:16:17.488Z,1.5
2019-02-15T15:18:18.231Z,1.2
2019-02-15T15:20:18.935Z,1.3
2019-02-15T15:22:17.893Z,1.3
2019-02-15T15:24:17.570Z,1.4
2019-02-15T15:26:17.955Z,1.3
2019-02-15T15:28:17.635Z,1.2
2019-02-15T15:30:18.340Z,1.3
2019-02-15T15:32:18.050Z,1.7
2019-02-15T15:34:17.767Z,2
2019-02-15T15:36:18.323Z,1.4
2019-02-15T15:38:18.196Z,1.2
2019-02-15T15:40:18.564Z,1.2
2019-02-15T15:42:18.222Z,1.6
2019-02-15T15:44:17.908Z,1.3
2019-02-15T15:46:17.595Z,1.3
2019-02-15T15:48:22.614Z,1.4
2019-02-15T15:50:18.708Z,1.1
2019-02-15T15:52:18.386Z,1
2019-02-15T15:54:18.053Z,1.5
2019-02-15T15:56:18.361Z,1.6
2019-02-15T15:58:18.042Z,1.2
2019-02-15T16:00:17.713Z,1.3
2019-02-15T16:02:19.389Z,1.2
2019-02-15T16:04:18.088Z,1.5
2019-02-15T16:06:24.265Z,1.6
2019-02-15T16:08:18.428Z,1
2019-02-15T16:10:17.560Z,3.6
2019-02-15T16:12:18.252Z,1.8
2019-02-15T16:14:17.915Z,1.3
2019-02-15T16:16:17.823Z,1
2019-02-15T16:18:18.601Z,1.3
2019-02-15T16:20:19.315Z,1.4
2019-02-15T16:22:17.992Z,2.2
2019-02-15T16:24:18.689Z,1.2
2019-02-15T16:26:19.034Z,1.6
2019-02-15T16:28:18.727Z,1
2019-02-15T16:30:19.420Z,1.4
2019-02-15T16:32:19.100Z,1
2019-02-15T16:34:18.811Z,1.4
2019-02-15T16:36:19.131Z,1.2
2019-02-15T16:38:18.797Z,1.7
2019-02-15T16:40:18.948Z,1.3
2019-02-15T16:42:18.604Z,1.8
2019-02-15T16:44:19.260Z,1.2
2019-02-15T16:46:19.144Z,2.3
2019-02-15T16:48:18.819Z,2.3
2019-02-15T16:50:18.510Z,1.4
2019-02-15T16:52:19.201Z,1.9
2019-02-15T16:54:18.892Z,2.1
2019-02-15T16:56:19.309Z,2.8
2019-02-15T16:58:18.955Z,2
2019-02-15T17:00:18.624Z,2.7
2019-02-15T17:02:19.292Z,2
2019-02-15T17:04:18.963Z,2.4
2019-02-15T17:06:19.264Z,2.2
2019-02-15T17:08:18.938Z,2.3
2019-02-15T17:10:19.073Z,2.4
2019-02-15T17:12:18.741Z,2.8
2019-02-15T17:14:19.422Z,2.4
2019-02-15T17:16:19.246Z,2.6
2019-02-15T17:18:18.987Z,2.6
2019-02-15T17:20:18.651Z,2.8
2019-02-15T17:22:19.301Z,2.4
2019-02-15T17:24:18.991Z,2.3
2019-02-15T17:26:19.346Z,3
2019-02-15T17:28:19.019Z,2.9
2019-02-15T17:30:18.716Z,4
2019-02-15T17:32:19.403Z,2.9
2019-02-15T17:34:19.074Z,2.5
2019-02-15T17:36:18.894Z,3.5
2019-02-15T17:38:18.558Z,3.6
2019-02-15T17:40:18.681Z,3.5
2019-02-15T17:42:19.347Z,3.2
2019-02-15T17:44:19.009Z,3.5
2019-02-15T17:46:19.298Z,4
2019-02-15T17:48:18.972Z,3.7
2019-02-15T17:50:18.648Z,3.9
2019-02-15T17:52:19.311Z,4.2
2019-02-15T17:54:18.979Z,4.7
2019-02-15T17:56:19.244Z,4.3
2019-02-15T17:58:18.956Z,3.7
2019-02-15T18:00:18.654Z,4.5
2019-02-15T18:02:19.324Z,3.6
2019-02-15T18:04:19.007Z,4.6
2019-02-15T18:06:19.033Z,4.1
2019-02-15T18:08:18.686Z,4.2
2019-02-15T18:10:18.864Z,4.7
2019-02-15T18:12:18.502Z,5.8
2019-02-15T18:14:19.181Z,5.9
2019-02-15T18:16:18.475Z,6.2
2019-02-15T18:18:19.221Z,7.3
2019-02-15T18:20:18.893Z,8.4
2019-02-15T18:22:18.536Z,7.6
2019-02-15T18:24:19.193Z,9
2019-02-15T18:26:18.549Z,8.3
2019-02-15T18:28:19.219Z,8.7
2019-02-15T18:30:18.891Z,7.9
2019-02-15T18:32:18.538Z,7.5
2019-02-15T18:34:19.187Z,9.4
2019-02-15T18:36:19.114Z,8.7
2019-02-15T18:38:18.767Z,9.3
2019-02-15T18:40:18.901Z,8.9
2019-02-15T18:42:18.554Z,8.8
2019-02-15T18:44:19.197Z,9.2
2019-02-15T18:46:19.149Z,10.3
2019-02-15T18:48:18.824Z,9.6
2019-02-15T18:50:18.505Z,8.5
2019-02-15T18:52:19.177Z,9.4
2019-02-15T18:54:18.838Z,8.7
2019-02-15T18:56:19.103Z,9
2019-02-15T18:58:18.750Z,9.2
2019-02-15T19:00:19.507Z,7.9
2019-02-15T19:02:19.190Z,7.7
2019-02-15T19:04:18.842Z,6.8
2019-02-15T19:06:19.175Z,7.9
2019-02-15T19:08:18.931Z,7.2
2019-02-15T19:10:19.063Z,6.6
2019-02-15T19:12:18.744Z,6.7
2019-02-15T19:14:19.401Z,5.5
2019-02-15T19:16:19.155Z,6.1
2019-02-15T19:18:18.905Z,6
2019-02-15T19:20:18.586Z,5.5
2019-02-15T19:22:19.247Z,6.1
2019-02-15T19:24:18.911Z,4.9
2019-02-15T19:26:19.176Z,4.3
2019-02-15T19:28:18.824Z,4.2
2019-02-15T19:30:18.524Z,5.2
2019-02-15T19:32:19.217Z,4.7
2019-02-15T19:34:18.886Z,5.4
2019-02-15T19:36:18.705Z,4.2
2019-02-15T19:38:19.348Z,5.7
2019-02-15T19:40:19.436Z,6.1
2019-02-15T19:42:19.093Z,5.7
2019-02-15T19:44:18.734Z,4.8
2019-02-15T19:46:18.549Z,5
2019-02-15T19:48:19.224Z,5.1
2019-02-15T19:50:18.902Z,4.8
2019-02-15T19:52:18.592Z,5
2019-02-15T19:54:19.282Z,4.8
2019-02-15T19:56:18.531Z,4.9
2019-02-15T19:58:19.176Z,4.6
2019-02-15T20:00:18.886Z,4.9
2019-02-15T20:02:18.611Z,5.2
2019-02-15T20:04:19.271Z,4.2
2019-02-15T20:06:18.563Z,5.6
2019-02-15T20:08:19.206Z,5
2019-02-15T20:10:19.287Z,4.9
2019-02-15T20:12:18.972Z,4.4
2019-02-15T20:14:18.624Z,5.5
2019-02-15T20:16:18.469Z,5.7
2019-02-15T20:18:19.265Z,4.9
2019-02-15T20:20:18.922Z,5.4
2019-02-15T20:22:18.562Z,7.1
2019-02-15T20:24:19.208Z,5.5
2019-02-15T20:26:18.532Z,6.6
2019-02-15T20:28:19.206Z,6.9
2019-02-15T20:30:18.886Z,6.5
2019-02-15T20:32:18.593Z,6.7
2019-02-15T20:34:19.265Z,6
2019-02-15T20:36:19.053Z,5.9
2019-02-15T20:38:18.683Z,5.6
2019-02-15T20:40:18.833Z,6.5
2019-02-15T20:42:18.472Z,5.9
2019-02-15T20:44:19.133Z,7
2019-02-15T20:46:18.511Z,7.5
2019-02-15T20:48:19.154Z,7.6
2019-02-15T20:50:18.812Z,7.1
2019-02-15T20:52:18.438Z,7.8
2019-02-15T20:54:19.115Z,7.1
2019-02-15T20:56:18.473Z,7.2
2019-02-15T20:58:19.162Z,7.2
2019-02-15T21:00:18.846Z,7.2
2019-02-15T21:02:18.507Z,8.1
2019-02-15T21:04:19.175Z,7.5
2019-02-15T21:06:18.992Z,5.5
2019-02-15T21:08:18.675Z,7
2019-02-15T21:10:18.815Z,5.6
2019-02-15T21:12:18.472Z,5.4
2019-02-15T21:14:19.179Z,6.2
2019-02-15T21:16:19.073Z,6.2
2019-02-15T21:18:18.809Z,6
2019-02-15T21:20:18.489Z,5.6
2019-02-15T21:22:19.155Z,5
2019-02-15T21:24:18.810Z,5.3
2019-02-15T21:26:19.109Z,6
2019-02-15T21:28:18.742Z,5.1
2019-02-15T21:30:19.411Z,5.5
2019-02-15T21:32:19.041Z,5.5
2019-02-15T21:34:18.673Z,5.3
2019-02-15T21:36:18.910Z,5.2
2019-02-15T21:38:18.557Z,5.9
2019-02-15T21:40:18.677Z,5.7
2019-02-15T21:42:19.315Z,5
2019-02-15T21:44:18.940Z,6.3
2019-02-15T21:46:19.202Z,6.3
2019-02-15T21:48:18.838Z,5.9
2019-02-15T21:50:18.483Z,5.5
2019-02-15T21:52:19.105Z,6.4
2019-02-15T21:54:18.736Z,6.4
2019-02-15T21:56:19.096Z,6.8
2019-02-15T21:58:18.739Z,6.6
2019-02-15T22:00:19.365Z,5.2
2019-02-15T22:02:18.970Z,6.1
2019-02-15T22:04:18.588Z,6.1
2019-02-15T22:06:18.795Z,6.2
2019-02-15T22:08:18.417Z,5.6
2019-02-15T22:10:18.481Z,7.1
2019-02-15T22:12:18.834Z,6.7
2019-02-15T22:14:18.472Z,6.5
2019-02-15T22:16:19.305Z,5.9
2019-02-15T22:18:19.022Z,5.3
2019-02-15T22:20:26.162Z,5.8
2019-02-15T22:22:18.671Z,6
2019-02-15T22:24:19.281Z,6.4
2019-02-15T22:26:19.154Z,5.7
2019-02-15T22:28:18.776Z,6.7
2019-02-15T22:30:19.442Z,7.1
2019-02-15T22:32:19.054Z,5.9
2019-02-15T22:34:18.667Z,5.1
2019-02-15T22:36:18.704Z,5.9
2019-02-15T22:38:19.319Z,7.3
2019-02-15T22:40:19.399Z,7.1
2019-02-15T22:42:19.015Z,6.6
2019-02-15T22:44:18.632Z,7.5
2019-02-15T22:46:19.369Z,7
2019-02-15T22:48:18.978Z,5.1
2019-02-15T22:50:18.610Z,6.3
2019-02-15T22:52:19.217Z,6.3
2019-02-15T22:54:18.832Z,6.4
2019-02-15T22:56:19.140Z,6.6
2019-02-15T22:58:18.756Z,7
2019-02-15T23:00:19.396Z,5.5
2019-02-15T23:02:19.041Z,7.3
2019-02-15T23:04:18.651Z,5.8
2019-02-15T23:06:19.415Z,5.4
2019-02-15T23:08:19.056Z,6.5
2019-02-15T23:10:19.148Z,5.6
2019-02-15T23:12:18.762Z,6
2019-02-15T23:14:19.375Z,6
2019-02-15T23:16:18.668Z,5.5
2019-02-15T23:18:19.374Z,4.8
2019-02-15T23:20:19.028Z,5.9
2019-02-15T23:22:18.637Z,5.5
2019-02-15T23:24:19.251Z,5.3
2019-02-15T23:26:18.594Z,5.2
2019-02-15T23:28:19.225Z,5
2019-02-15T23:30:18.861Z,5.3
2019-02-15T23:32:18.481Z,5.3
2019-02-15T23:34:19.097Z,4.8
2019-02-15T23:36:19.302Z,4.4
2019-02-15T23:38:18.912Z,4.2
2019-02-15T23:40:18.993Z,5.1
2019-02-15T23:42:18.608Z,4.7
2019-02-15T23:44:19.223Z,4.4
2019-02-15T23:46:18.608Z,5.4
2019-02-15T23:48:19.240Z,3.9
2019-02-15T23:50:18.888Z,5.6
2019-02-15T23:52:18.509Z,4.4
2019-02-15T23:54:19.117Z,4.2
2019-02-15T23:56:19.402Z,4.3
2019-02-15T23:58:19.016Z,4.1
